Time;durP1;ratioP1;P1;durP2;ratioP2;P2;SDS_P1;SDS_P2;PMS_P1;PMS_P2;Temp;Humidity;BMP_temperature;BMP_pressure;BME280_temperature;BME280_humidity;BME280_pressure;Samples;Min_cycle;Max_cycle;Signal;HPM_P1;HPM_P2
2023/10/09 00:01:01;;;;;;;18.40;15.55;;;;;;;13.58;100.00;101864.19;5015916;28;20030;-74
2023/10/09 00:03:27;;;;;;;18.08;15.18;;;;;;;13.68;100.00;101868.19;5017541;28;20025;-73
2023/10/09 00:05:53;;;;;;;20.70;15.43;;;;;;;13.69;100.00;101854.72;5018516;28;20040;-73
2023/10/09 00:08:30;;;;;;;22.08;15.40;;;;;;;13.74;100.00;101857.19;5020580;28;20029;-74
2023/10/09 00:10:57;;;;;;;20.65;15.30;;;;;;;13.76;100.00;101849.97;5021881;28;20057;-74
2023/10/09 00:13:30;;;;;;;19.75;15.02;;;;;;;13.81;100.00;101869.34;5020630;28;20022;-74
2023/10/09 00:16:13;;;;;;;19.90;14.73;;;;;;;13.84;100.00;101855.81;5020711;28;20630;-74
2023/10/09 00:18:39;;;;;;;19.75;15.55;;;;;;;13.94;100.00;101848.19;5016596;28;20035;-75
2023/10/09 00:21:11;;;;;;;19.95;15.38;;;;;;;13.99;100.00;101843.47;5021328;28;20021;-75
2023/10/09 00:23:41;;;;;;;18.42;13.38;;;;;;;14.03;100.00;101841.53;5015596;28;20021;-75
2023/10/09 00:26:08;;;;;;;17.55;14.88;;;;;;;14.07;100.00;101845.78;5017416;28;20381;-75
2023/10/09 00:28:38;;;;;;;18.85;14.10;;;;;;;14.10;100.00;101829.56;5029539;28;20112;-74
2023/10/09 00:31:07;;;;;;;19.48;14.63;;;;;;;14.15;100.00;101828.41;5019097;28;20048;-74
2023/10/09 00:33:33;;;;;;;19.73;14.27;;;;;;;14.14;100.00;101842.72;5016918;28;20029;-74
2023/10/09 00:36:09;;;;;;;15.77;12.77;;;;;;;14.17;100.00;101847.03;5019343;28;20115;-75
2023/10/09 00:38:45;;;;;;;18.40;14.23;;;;;;;14.17;100.00;101841.69;5018274;28;20213;-74
2023/10/09 00:41:11;;;;;;;22.52;14.02;;;;;;;14.18;100.00;101832.75;5015573;28;20542;-73
2023/10/09 00:43:38;;;;;;;16.48;13.35;;;;;;;14.20;100.00;101820.13;5022623;28;20084;-74
2023/10/09 00:48:47;;;;;;;19.05;14.00;;;;;;;14.25;100.00;101802.00;5018120;28;20442;-74
2023/10/09 00:51:18;;;;;;;16.05;13.73;;;;;;;14.28;100.00;101807.22;5019505;28;20017;-74
2023/10/09 00:53:52;;;;;;;16.65;13.20;;;;;;;14.27;100.00;101813.53;5024988;28;20278;-75
2023/10/09 00:56:28;;;;;;;16.10;13.30;;;;;;;14.26;100.00;101809.13;5023198;28;20026;-74
2023/10/09 00:58:59;;;;;;;17.10;13.50;;;;;;;14.28;100.00;101803.69;5016277;28;20083;-74
2023/10/09 01:01:34;;;;;;;18.98;13.20;;;;;;;14.26;100.00;101800.22;5019542;28;20407;-75
2023/10/09 01:04:14;;;;;;;14.95;12.82;;;;;;;14.26;100.00;101817.16;5018440;28;20044;-74
2023/10/09 01:06:45;;;;;;;17.70;13.55;;;;;;;14.24;100.00;101821.72;5016837;28;21432;-74
2023/10/09 01:09:16;;;;;;;18.17;13.70;;;;;;;14.24;100.00;101821.72;5012321;28;20484;-75
2023/10/09 01:12:03;;;;;;;14.55;12.73;;;;;;;14.26;100.00;101810.94;5017947;28;20025;-74
2023/10/09 01:14:37;;;;;;;15.30;13.32;;;;;;;14.20;100.00;101821.00;5018001;28;20100;-74
2023/10/09 01:17:08;;;;;;;16.73;12.65;;;;;;;14.20;100.00;101814.78;5020805;28;20033;-74
2023/10/09 01:19:34;;;;;;;15.10;12.63;;;;;;;14.24;100.00;101816.34;5017640;28;20036;-74
2023/10/09 01:22:16;;;;;;;20.45;13.73;;;;;;;14.24;100.00;101819.03;5024333;28;20140;-75
2023/10/09 01:24:43;;;;;;;15.98;13.30;;;;;;;14.27;100.00;101818.88;5019949;28;20025;-74
2023/10/09 01:27:14;;;;;;;20.08;13.70;;;;;;;14.28;100.00;101812.56;5015459;28;20021;-74
2023/10/09 01:29:41;;;;;;;16.13;13.18;;;;;;;14.39;100.00;101817.41;5013158;28;20068;-75
2023/10/09 01:32:09;;;;;;;16.30;13.13;;;;;;;14.38;100.00;101812.97;5017331;28;20032;-74
2023/10/09 01:34:49;;;;;;;18.77;14.05;;;;;;;14.39;100.00;101810.22;5011715;28;20117;-73
2023/10/09 01:37:19;;;;;;;16.95;13.48;;;;;;;14.41;100.00;101826.19;5018627;28;20037;-75
2023/10/09 01:39:48;;;;;;;17.95;14.43;;;;;;;14.38;100.00;101827.25;5014483;28;20021;-74
2023/10/09 01:44:50;;;;;;;15.50;12.15;;;;;;;14.40;100.00;101838.72;5017265;28;20034;-74
2023/10/09 01:47:18;;;;;;;16.92;13.90;;;;;;;14.39;100.00;101823.63;5016614;28;20583;-74
2023/10/09 01:49:44;;;;;;;17.75;12.63;;;;;;;14.43;100.00;101818.97;5016459;28;20498;-74
2023/10/09 01:52:16;;;;;;;17.13;13.52;;;;;;;14.41;100.00;101816.34;5010231;28;20116;-74
2023/10/09 01:54:48;;;;;;;18.23;13.48;;;;;;;14.42;100.00;101814.53;5014730;28;20029;-74
2023/10/09 01:57:15;;;;;;;16.45;14.27;;;;;;;14.40;100.00;101813.75;5011713;28;20115;-74
2023/10/09 01:59:47;;;;;;;15.35;13.07;;;;;;;14.40;100.00;101817.31;5019581;28;20499;-75
2023/10/09 02:02:33;;;;;;;18.10;13.15;;;;;;;14.40;100.00;101813.75;5022912;28;20116;-73
2023/10/09 02:07:40;;;;;;;17.02;13.18;;;;;;;14.36;100.00;101817.53;5019200;28;20037;-73
2023/10/09 02:10:21;;;;;;;18.38;13.68;;;;;;;14.36;100.00;101807.69;5021441;28;20036;-74
2023/10/09 02:12:58;;;;;;;16.02;13.50;;;;;;;14.38;100.00;101810.28;5014909;28;20030;-74
2023/10/09 02:16:15;;;;;;;17.02;13.77;;;;;;;14.37;100.00;101813.91;5014400;28;20388;-73
2023/10/09 02:18:27;;;;;;;15.98;13.35;;;;;;;14.31;100.00;101807.06;5013634;28;20484;-73
2023/10/09 02:26:17;;;;;;;17.02;13.57;;;;;;;14.34;100.00;101812.28;5013133;28;20038;-74
2023/10/09 02:28:43;;;;;;;17.83;13.75;;;;;;;14.34;100.00;101806.06;5018540;28;20171;-74
2023/10/09 02:31:13;;;;;;;20.25;14.07;;;;;;;14.30;100.00;101799.13;5015949;28;20045;-74
2023/10/09 02:33:41;;;;;;;18.02;14.15;;;;;;;14.31;100.00;101807.06;5018426;28;20029;-74
2023/10/09 02:36:07;;;;;;;16.73;14.10;;;;;;;14.34;100.00;101804.25;5018375;28;20045;-74
2023/10/09 02:38:35;;;;;;;16.73;14.25;;;;;;;14.33;100.00;101810.53;5020930;28;20033;-74
2023/10/09 02:43:47;;;;;;;17.60;14.10;;;;;;;14.33;100.00;101777.53;5019121;28;20112;-74
2023/10/09 02:48:52;;;;;;;17.52;14.68;;;;;;;14.33;100.00;101772.16;5023750;28;20171;-75
2023/10/09 02:53:58;;;;;;;17.17;13.88;;;;;;;14.33;100.00;101765.00;5025443;28;20407;-75
2023/10/09 02:57:29;;;;;;;16.50;13.75;;;;;;;14.32;100.00;101760.59;5019797;28;20057;-73
2023/10/09 02:59:22;;;;;;;16.50;14.13;;;;;;;14.31;100.00;101766.91;5015295;28;20476;-74
2023/10/09 03:01:48;;;;;;;16.30;13.70;;;;;;;14.33;100.00;101778.38;5019702;28;20105;-73
2023/10/09 03:04:15;;;;;;;18.73;14.93;;;;;;;14.31;100.00;101774.94;5022064;28;20095;-74
2023/10/09 03:06:49;;;;;;;17.65;14.63;;;;;;;14.28;100.00;101766.19;5020413;28;20073;-74
2023/10/09 03:09:27;;;;;;;20.00;14.27;;;;;;;14.31;100.00;101774.94;5014612;28;20063;-73
2023/10/09 03:11:54;;;;;;;19.98;14.60;;;;;;;14.30;100.00;101773.22;5017889;28;20120;-73
2023/10/09 03:14:28;;;;;;;19.73;14.95;;;;;;;14.30;100.00;101772.34;5018673;28;20476;-74
2023/10/09 03:16:54;;;;;;;16.73;14.63;;;;;;;14.30;100.00;101786.59;5018830;28;20033;-73
2023/10/09 03:19:19;;;;;;;18.00;14.40;;;;;;;14.29;100.00;101776.81;5022622;28;20078;-73
2023/10/09 03:21:46;;;;;;;18.73;14.18;;;;;;;14.29;100.00;101787.53;5019868;28;20059;-74
2023/10/09 03:24:11;;;;;;;17.52;15.18;;;;;;;14.27;100.00;101781.41;5020949;28;20276;-73
2023/10/09 03:26:37;;;;;;;17.60;14.70;;;;;;;14.25;100.00;101775.22;5018791;28;20064;-73
2023/10/09 03:29:06;;;;;;;17.77;14.88;;;;;;;14.25;100.00;101767.19;5022054;28;20029;-74
2023/10/09 03:31:38;;;;;;;18.52;14.70;;;;;;;14.26;100.00;101760.94;5018978;28;20075;-75
2023/10/09 03:34:10;;;;;;;17.38;14.57;;;;;;;14.27;100.00;101759.97;5015015;28;20075;-74
2023/10/09 03:36:37;;;;;;;17.67;14.93;;;;;;;14.30;100.00;101753.59;5019646;28;20105;-74
2023/10/09 03:39:07;;;;;;;19.30;14.77;;;;;;;14.28;100.00;101747.44;5016252;28;20028;-74
2023/10/09 03:41:39;;;;;;;20.10;14.57;;;;;;;14.26;100.00;101752.03;5022044;28;20049;-74
2023/10/09 03:44:06;;;;;;;16.88;14.57;;;;;;;14.25;100.00;101752.94;5015951;28;20040;-74
2023/10/09 03:46:36;;;;;;;17.83;15.90;;;;;;;14.22;100.00;101745.97;5016465;28;20503;-74
2023/10/09 03:49:02;;;;;;;17.70;14.32;;;;;;;14.19;100.00;101744.28;5020209;28;20017;-74
2023/10/09 03:51:29;;;;;;;17.30;14.05;;;;;;;14.18;100.00;101747.06;5019132;28;20580;-73
2023/10/09 03:53:54;;;;;;;17.95;14.15;;;;;;;14.16;100.00;101744.44;5021460;28;20061;-74
2023/10/09 03:56:21;;;;;;;18.67;14.68;;;;;;;14.13;100.00;101741.09;5012411;28;20115;-74
2023/10/09 03:58:49;;;;;;;16.48;14.73;;;;;;;14.14;100.00;101740.13;5019351;28;20036;-74
2023/10/09 04:03:59;;;;;;;18.80;14.10;;;;;;;14.15;100.00;101728.47;5020979;28;20037;-74
2023/10/09 04:06:30;;;;;;;18.42;14.38;;;;;;;14.15;100.00;101733.81;5015766;28;20060;-74
2023/10/09 04:08:58;;;;;;;16.00;13.43;;;;;;;14.11;100.00;101730.44;5021835;28;20057;-75
2023/10/09 04:11:24;;;;;;;19.33;14.85;;;;;;;14.08;100.00;101733.25;5022281;28;20033;-74
2023/10/09 04:13:52;;;;;;;19.27;14.70;;;;;;;14.03;100.00;101729.97;5021296;28;20052;-73
2023/10/09 04:18:59;;;;;;;19.23;13.98;;;;;;;13.99;100.00;101739.09;5018694;28;20033;-74
2023/10/09 04:21:35;;;;;;;18.90;15.18;;;;;;;13.93;100.00;101745.63;5016733;28;20116;-75
2023/10/09 04:26:55;;;;;;;18.48;14.85;;;;;;;13.95;100.00;101740.19;5019384;28;20035;-73
2023/10/09 04:29:37;;;;;;;17.83;14.73;;;;;;;13.95;100.00;101730.34;5018144;28;20126;-73
2023/10/09 04:32:07;;;;;;;21.05;14.60;;;;;;;13.95;100.00;101735.69;5019332;28;20044;-73
2023/10/09 04:34:37;;;;;;;18.05;15.00;;;;;;;14.00;100.00;101721.22;5019102;28;20082;-73
2023/10/09 04:39:46;;;;;;;17.40;14.63;;;;;;;14.03;100.00;101715.72;5010919;28;20044;-74
2023/10/09 04:42:36;;;;;;;20.83;15.77;;;;;;;13.99;100.00;101715.00;5018631;28;20046;-74
2023/10/09 04:47:35;;;;;;;17.48;14.40;;;;;;;13.99;100.00;101756.97;5022626;28;20068;-74
2023/10/09 04:52:54;;;;;;;19.95;14.77;;;;;;;13.98;100.00;101764.13;5017450;28;20618;-74
2023/10/09 04:55:24;;;;;;;17.92;14.57;;;;;;;13.97;100.00;101761.53;5020892;28;20025;-75
2023/10/09 04:58:09;;;;;;;18.50;14.35;;;;;;;13.97;100.00;101766.91;5013304;28;20294;-74
2023/10/09 05:03:10;;;;;;;19.27;14.88;;;;;;;13.94;100.00;101762.56;5026471;28;20561;-74
2023/10/09 05:08:21;;;;;;;20.95;15.73;;;;;;;14.00;100.00;101751.53;5019032;28;20037;-73
2023/10/09 05:11:15;;;;;;;20.67;15.68;;;;;;;14.02;100.00;101746.97;5020604;28;20021;-74
2023/10/09 05:16:19;;;;;;;19.58;15.15;;;;;;;14.04;100.00;101758.44;5020659;28;20033;-74
2023/10/09 05:21:47;;;;;;;19.27;16.40;;;;;;;13.98;100.00;101753.44;4975164;28;20559;-74
2023/10/09 05:37:24;;;;;;;22.20;17.50;;;;;;;14.04;100.00;101765.63;4973653;28;20045;-74
2023/10/09 05:48:48;;;;;;;20.65;16.88;;;;;;;14.10;100.00;101792.09;4978423;28;20045;-74
2023/10/09 06:04:49;;;;;;;22.30;18.10;;;;;;;14.17;100.00;101793.50;5014706;28;20036;-73
2023/10/09 06:07:22;;;;;;;21.70;18.75;;;;;;;14.20;100.00;101806.75;5019209;28;20076;-72
2023/10/09 06:09:52;;;;;;;23.15;18.52;;;;;;;14.21;100.00;101805.78;5019990;28;20510;-74
2023/10/09 06:13:06;;;;;;;22.58;18.13;;;;;;;14.24;100.00;101826.19;5015051;28;20033;-72
2023/10/09 06:26:33;;;;;;;22.15;18.80;;;;;;;14.28;100.00;101811.72;4946107;28;20047;-74
2023/10/09 06:29:30;;;;;;;23.38;18.83;;;;;;;14.29;100.00;101813.44;4942611;28;20297;-73
2023/10/09 06:31:59;;;;;;;25.75;20.08;;;;;;;14.31;100.00;101811.56;4941949;28;20164;-74
2023/10/09 06:34:35;;;;;;;28.13;19.88;;;;;;;14.31;100.00;101804.41;4944587;28;20209;-74
2023/10/09 06:37:17;;;;;;;22.38;19.98;;;;;;;14.33;100.00;101804.31;4942236;28;20390;-75
2023/10/09 06:45:18;;;;;;;25.45;20.92;;;;;;;14.39;100.00;101810.22;4945794;28;20039;-75
2023/10/09 06:53:19;;;;;;;27.27;20.23;;;;;;;14.48;100.00;101824.94;4949166;28;20073;-77
2023/10/09 06:55:48;;;;;;;25.05;20.00;;;;;;;14.54;100.00;101827.34;4953783;28;20491;-77
2023/10/09 06:58:27;;;;;;;26.48;21.50;;;;;;;14.58;100.00;101820.00;4963163;28;20064;-77
2023/10/09 07:03:52;;;;;;;24.75;20.00;;;;;;;14.62;100.00;101811.72;5021184;28;20091;-76
2023/10/09 07:06:24;;;;;;;25.20;20.08;;;;;;;14.64;100.00;101811.66;5016882;28;20074;-72
2023/10/09 07:17:21;;;;;;;26.05;19.65;;;;;;;14.90;100.00;101768.25;5006432;28;20049;-73
2023/10/09 07:24:57;;;;;;;23.75;18.88;;;;;;;15.00;100.00;101757.03;5022368;28;20495;-74
2023/10/09 07:30:57;;;;;;;24.17;18.52;;;;;;;15.03;100.00;101759.53;5021429;28;20041;-73
2023/10/09 07:38:14;;;;;;;24.52;17.48;;;;;;;15.06;100.00;101788.88;5020601;28;20554;-75
2023/10/09 07:40:55;;;;;;;21.65;17.77;;;;;;;15.05;100.00;101797.84;5017215;28;20103;-75
2023/10/09 07:43:38;;;;;;;24.25;18.45;;;;;;;15.01;100.00;101821.28;5021626;28;20026;-74
2023/10/09 07:48:52;;;;;;;24.42;18.60;;;;;;;14.93;100.00;101847.66;5019848;28;20586;-74
2023/10/09 07:51:30;;;;;;;24.30;19.45;;;;;;;14.90;100.00;101854.03;5018873;28;20111;-73
2023/10/09 07:53:57;;;;;;;24.58;18.85;;;;;;;14.89;100.00;101852.31;5023894;28;20296;-75
2023/10/09 07:56:23;;;;;;;24.65;18.05;;;;;;;14.87;100.00;101846.13;5021304;28;20061;-74
2023/10/09 07:58:49;;;;;;;23.83;18.52;;;;;;;14.88;100.00;101847.91;5014675;28;20021;-74
2023/10/09 08:01:16;;;;;;;22.10;18.48;;;;;;;14.92;100.00;101833.38;5018742;28;20036;-74
2023/10/09 08:03:46;;;;;;;22.88;18.05;;;;;;;14.97;100.00;101816.19;5013509;28;20319;-74
2023/10/09 08:16:46;;;;;;;23.98;19.02;;;;;;;15.12;100.00;101815.34;5020159;28;20049;-75
2023/10/09 08:19:32;;;;;;;25.08;19.13;;;;;;;15.14;100.00;101822.34;5017441;28;20029;-74
2023/10/09 08:24:43;;;;;;;23.92;19.40;;;;;;;15.37;100.00;101837.19;5016604;28;20107;-74
2023/10/09 08:27:54;;;;;;;25.25;18.38;;;;;;;15.49;100.00;101830.28;5017187;28;20039;-75
2023/10/09 08:33:00;;;;;;;26.45;19.23;;;;;;;15.80;100.00;101839.28;5013010;28;20037;-75
2023/10/09 08:35:51;;;;;;;22.98;19.02;;;;;;;16.02;100.00;101828.22;5011689;28;20083;-74
2023/10/09 08:38:23;;;;;;;23.42;18.45;;;;;;;16.19;100.00;101828.09;5013145;28;20123;-73
2023/10/09 08:40:50;;;;;;;24.30;18.50;;;;;;;16.37;100.00;101824.31;5012462;28;20044;-74
2023/10/09 08:43:20;;;;;;;22.83;18.50;;;;;;;16.49;100.00;101811.09;5011580;28;20033;-73
2023/10/09 08:45:48;;;;;;;23.63;18.17;;;;;;;16.55;100.00;101816.09;5012192;28;20492;-74
2023/10/09 08:48:18;;;;;;;26.63;18.70;;;;;;;16.66;100.00;101809.09;5013870;28;20451;-75
2023/10/09 08:50:50;;;;;;;24.48;18.48;;;;;;;16.64;100.00;101820.94;5018126;28;20025;-74
2023/10/09 08:53:16;;;;;;;22.35;17.90;;;;;;;16.59;100.00;101807.75;5018319;28;20503;-74
2023/10/09 08:55:43;;;;;;;23.02;18.10;;;;;;;16.58;100.00;101807.84;5011348;28;21568;-74
2023/10/09 08:58:28;;;;;;;23.50;18.25;;;;;;;16.66;100.00;101808.25;5012924;28;20052;-74
2023/10/09 09:00:55;;;;;;;25.45;19.90;;;;;;;16.82;100.00;101805.53;5015533;28;20044;-73
2023/10/09 09:03:23;;;;;;;25.35;18.35;;;;;;;16.98;100.00;101805.44;5023097;28;20027;-74
2023/10/09 09:06:02;;;;;;;24.48;18.88;;;;;;;17.11;100.00;101803.69;5020593;28;20618;-74
2023/10/09 09:08:30;;;;;;;22.33;17.90;;;;;;;17.22;100.00;101805.69;5019640;28;20033;-74
2023/10/09 09:11:22;;;;;;;20.70;17.27;;;;;;;17.31;99.82;101811.38;5020070;28;20018;-74
2023/10/09 09:13:51;;;;;;;23.85;18.15;;;;;;;17.38;99.48;101804.63;5012767;28;20396;-74
2023/10/09 09:16:29;;;;;;;23.70;18.27;;;;;;;17.58;99.95;101818.63;5014056;28;20041;-75
2023/10/09 09:21:40;;;;;;;22.73;17.95;;;;;;;17.95;96.35;101811.72;5017131;28;20029;-74
2023/10/09 09:24:30;;;;;;;25.55;17.23;;;;;;;18.10;96.30;101801.72;5018887;28;20025;-74
2023/10/09 09:27:18;;;;;;;19.95;17.60;;;;;;;18.33;94.87;101819.91;5019528;28;20503;-74
2023/10/09 09:29:52;;;;;;;21.15;17.98;;;;;;;18.55;92.96;101822.00;5016825;28;20155;-75
2023/10/09 09:32:29;;;;;;;21.83;17.55;;;;;;;18.67;93.44;101842.72;5013308;28;20028;-76
2023/10/09 09:35:00;;;;;;;19.77;16.85;;;;;;;18.82;91.23;101840.84;5015503;28;20041;-75
2023/10/09 09:37:31;;;;;;;23.85;17.92;;;;;;;18.78;90.94;101842.03;5017508;28;20130;-75
2023/10/09 09:40:14;;;;;;;21.30;16.73;;;;;;;18.76;90.91;101851.19;5017429;28;20474;-75
2023/10/09 09:42:44;;;;;;;22.67;17.02;;;;;;;18.77;90.44;101851.09;5018530;28;20871;-74
2023/10/09 09:45:11;;;;;;;23.20;17.40;;;;;;;18.82;91.22;101848.94;5014110;28;20032;-74
2023/10/09 09:47:37;;;;;;;21.83;17.80;;;;;;;18.81;90.52;101854.41;5014836;28;20108;-73
2023/10/09 09:50:13;;;;;;;23.77;18.42;;;;;;;18.74;90.85;101850.44;5018695;28;20114;-76
2023/10/09 09:52:39;;;;;;;21.50;18.13;;;;;;;18.76;90.13;101857.44;5015152;28;20132;-75
2023/10/09 09:55:22;;;;;;;26.80;19.23;;;;;;;18.66;90.85;101867.13;5017834;28;20047;-76
2023/10/09 09:57:51;;;;;;;25.08;18.77;;;;;;;18.70;91.64;101863.28;5023668;28;20025;-75
2023/10/09 10:00:30;;;;;;;24.48;19.75;;;;;;;18.71;91.82;101861.44;5018249;28;20133;-74
2023/10/09 10:03:05;;;;;;;24.48;18.55;;;;;;;18.67;90.77;101867.00;5018915;28;20022;-75
2023/10/09 10:05:33;;;;;;;22.52;20.13;;;;;;;18.61;90.39;101863.88;5021340;28;20069;-75
2023/10/09 10:08:00;;;;;;;21.63;19.10;;;;;;;18.61;91.27;101858.47;5017193;28;20081;-74
2023/10/09 10:10:47;;;;;;;23.10;19.25;;;;;;;18.70;91.97;101865.09;5016970;28;20029;-75
2023/10/09 10:13:21;;;;;;;22.50;19.17;;;;;;;18.89;90.86;101865.53;5017580;28;20415;-75
2023/10/09 10:15:58;;;;;;;23.00;19.33;;;;;;;19.03;90.16;101865.44;5016793;28;20155;-75
2023/10/09 10:18:24;;;;;;;24.67;20.85;;;;;;;19.05;88.71;101870.72;5016882;28;20039;-76
2023/10/09 10:21:52;;;;;;;24.65;19.98;;;;;;;19.17;90.30;101886.06;5020769;28;20419;-75
2023/10/09 10:24:05;;;;;;;25.13;19.42;;;;;;;19.14;88.79;101873.66;5010469;28;20038;-75
2023/10/09 10:26:33;;;;;;;25.80;19.95;;;;;;;19.15;88.49;101875.38;5019639;28;20021;-75
2023/10/09 10:29:26;;;;;;;25.65;20.60;;;;;;;19.21;88.93;101874.06;5015674;28;20026;-75
2023/10/09 10:32:06;;;;;;;24.15;20.25;;;;;;;19.24;89.05;101873.88;5017482;28;20029;-75
2023/10/09 10:34:55;;;;;;;24.15;20.30;;;;;;;19.44;88.47;101871.56;5018577;28;20021;-74
2023/10/09 10:37:50;;;;;;;27.08;20.73;;;;;;;19.53;88.70;101879.03;5017106;28;20438;-74
2023/10/09 10:43:09;;;;;;;23.83;19.85;;;;;;;19.87;86.68;101880.16;5064538;27;20787;-73
2023/10/09 10:45:43;;;;;;;24.05;18.65;;;;;;;20.15;84.42;101879.84;5054556;28;20210;-74
2023/10/09 10:48:22;;;;;;;24.70;19.05;;;;;;;20.19;83.33;101880.47;5052630;28;20041;-75
2023/10/09 10:50:49;;;;;;;25.08;19.63;;;;;;;20.43;83.50;101875.03;5056327;28;20040;-74
2023/10/09 10:53:15;;;;;;;25.60;19.10;;;;;;;20.69;81.94;101875.75;5052167;28;20511;-75
2023/10/09 10:58:37;;;;;;;22.70;19.08;;;;;;;21.26;78.84;101864.06;5052177;28;20052;-71
2023/10/09 11:01:14;;;;;;;22.17;19.55;;;;;;;21.16;78.14;101879.31;5055842;28;20032;-71
2023/10/09 11:03:55;;;;;;;24.35;20.08;;;;;;;20.88;79.43;101869.78;5050134;28;20364;-70
2023/10/09 11:06:35;;;;;;;26.13;20.40;;;;;;;20.82;80.67;101867.59;5053472;28;20036;-71
2023/10/09 11:09:08;;;;;;;23.63;19.15;;;;;;;20.95;80.33;101862.06;5055446;28;20555;-70
2023/10/09 11:11:46;;;;;;;24.50;19.20;;;;;;;21.23;79.56;101868.84;5048544;28;20075;-70
2023/10/09 11:14:17;;;;;;;25.15;19.20;;;;;;;21.38;78.42;101873.06;5051518;28;20056;-71
2023/10/09 11:16:47;;;;;;;25.63;19.75;;;;;;;21.58;77.29;101876.88;5054510;28;20040;-71
2023/10/09 11:19:28;;;;;;;23.95;18.45;;;;;;;21.58;77.27;101876.88;5055512;28;20498;-71
2023/10/09 11:21:59;;;;;;;24.85;18.60;;;;;;;21.55;76.98;101880.69;5050634;28;20040;-70
2023/10/09 11:24:33;;;;;;;23.08;18.38;;;;;;;21.71;76.95;101880.31;5051191;28;20214;-70
2023/10/09 11:27:05;;;;;;;23.65;19.27;;;;;;;22.16;75.51;101869.41;5046060;28;20032;-71
2023/10/09 11:32:22;;;;;;;25.42;19.42;;;;;;;23.01;70.16;101868.50;5055724;28;20128;-71
2023/10/09 11:34:51;;;;;;;23.83;19.15;;;;;;;23.16;69.32;101869.00;5054431;28;20033;-70
2023/10/09 11:40:00;;;;;;;24.05;19.40;;;;;;;23.12;69.21;101860.28;5055120;28;20051;-71
2023/10/09 11:45:29;;;;;;;25.58;19.20;;;;;;;22.65;72.36;101846.22;5052684;28;20099;-72
2023/10/09 11:47:57;;;;;;;23.27;19.48;;;;;;;22.65;71.44;101856.22;5049410;28;20029;-71
2023/10/09 11:50:51;;;;;;;23.50;20.52;;;;;;;23.11;71.09;101853.13;5056039;28;20085;-71
2023/10/09 11:53:33;;;;;;;21.85;18.90;;;;;;;23.14;69.88;101860.16;5046211;28;20420;-72
2023/10/09 11:55:59;;;;;;;26.25;20.48;;;;;;;22.67;69.78;101857.84;5041489;28;20056;-72
2023/10/09 11:58:24;;;;;;;24.70;19.08;;;;;;;22.27;71.93;101852.22;5044682;28;20290;-72
2023/10/09 12:00:51;;;;;;;24.17;19.98;;;;;;;22.02;74.54;101862.38;5039657;28;20060;-72
2023/10/09 12:03:16;;;;;;;25.35;19.33;;;;;;;21.86;75.20;101862.81;5039337;28;20103;-72
2023/10/09 12:05:44;;;;;;;23.67;19.08;;;;;;;21.73;75.23;101864.78;5037046;28;20020;-70
2023/10/09 12:08:10;;;;;;;22.30;19.63;;;;;;;21.72;76.76;101865.78;5037121;28;20024;-71
2023/10/09 12:10:38;;;;;;;25.42;20.50;;;;;;;21.60;77.18;101861.34;5039536;28;20061;-73
2023/10/09 12:13:05;;;;;;;26.08;18.75;;;;;;;21.75;77.78;101862.81;5039959;28;20043;-71
2023/10/09 12:15:37;;;;;;;24.42;19.38;;;;;;;21.72;76.81;101865.78;5039906;28;20261;-71
2023/10/09 12:18:14;;;;;;;24.58;18.55;;;;;;;21.79;77.33;101864.28;5039865;28;20025;-72
2023/10/09 12:20:50;;;;;;;27.27;18.33;;;;;;;21.67;77.64;101862.59;5039235;28;20047;-71
2023/10/09 12:23:17;;;;;;;22.50;18.23;;;;;;;21.60;78.22;101855.94;5038933;28;20032;-71
2023/10/09 12:25:44;;;;;;;23.00;17.60;;;;;;;21.57;78.47;101862.50;5038197;28;20079;-72
2023/10/09 12:28:12;;;;;;;18.48;14.98;;;;;;;21.49;77.55;101859.53;5036089;28;20025;-71
2023/10/09 12:30:39;;;;;;;20.00;16.00;;;;;;;21.32;77.81;101855.47;5034188;28;20025;-71
2023/10/09 12:33:07;;;;;;;19.48;15.02;;;;;;;21.31;79.09;101856.41;5037579;28;20119;-72
2023/10/09 12:35:37;;;;;;;17.90;13.63;;;;;;;21.37;78.18;101850.56;5039303;28;20017;-72
2023/10/09 12:38:03;;;;;;;18.48;13.40;;;;;;;21.40;78.39;101841.31;5040998;28;20067;-71
2023/10/09 12:40:31;;;;;;;17.88;13.88;;;;;;;21.49;79.13;101850.56;5036850;28;20102;-72
2023/10/09 12:43:00;;;;;;;19.58;14.35;;;;;;;21.58;78.02;101852.50;5040377;28;20025;-72
2023/10/09 12:45:26;;;;;;;19.13;14.18;;;;;;;21.53;77.94;101855.59;5033318;28;20116;-72
2023/10/09 12:48:03;;;;;;;17.10;12.93;;;;;;;21.63;78.78;101855.69;5031264;28;20033;-72
2023/10/09 12:50:33;;;;;;;18.08;13.77;;;;;;;21.71;78.02;101845.09;5036416;28;20039;-72
2023/10/09 12:53:02;;;;;;;15.85;13.10;;;;;;;21.82;77.55;101836.97;5035358;28;20017;-72
2023/10/09 12:55:35;;;;;;;22.08;13.20;;;;;;;22.02;76.51;101837.97;5033109;28;20112;-71
2023/10/09 12:58:07;;;;;;;17.05;13.05;;;;;;;22.13;75.59;101842.56;5036322;28;20462;-71
2023/10/09 13:00:38;;;;;;;14.48;12.40;;;;;;;22.10;75.76;101838.19;5038027;28;20035;-72
2023/10/09 13:03:16;;;;;;;17.77;12.57;;;;;;;22.11;75.41;101836.34;5039074;28;20024;-72
2023/10/09 13:05:54;;;;;;;14.20;11.52;;;;;;;22.11;75.74;101825.50;5037837;28;20053;-72
2023/10/09 13:08:34;;;;;;;15.95;11.68;;;;;;;22.08;75.68;101812.22;5032555;28;20043;-71
2023/10/09 13:11:10;;;;;;;16.95;10.60;;;;;;;21.95;76.14;101814.25;5038205;28;20029;-71
2023/10/09 13:13:40;;;;;;;17.20;11.27;;;;;;;21.80;75.76;101814.53;5037853;28;20021;-71
2023/10/09 13:16:12;;;;;;;14.93;10.52;;;;;;;21.91;76.10;101810.06;5038172;28;20025;-72
2023/10/09 13:18:49;;;;;;;14.70;10.20;;;;;;;22.13;75.49;101815.44;5040712;28;20067;-72
2023/10/09 13:21:16;;;;;;;14.90;9.98;;;;;;;22.52;74.34;101805.72;5038991;28;20025;-72
2023/10/09 13:23:46;;;;;;;14.05;10.20;;;;;;;22.61;73.01;101804.06;5040888;28;20067;-73
2023/10/09 13:26:17;;;;;;;15.27;9.45;;;;;;;22.45;72.23;101798.25;5037420;28;20063;-72
2023/10/09 13:28:46;;;;;;;17.70;10.43;;;;;;;22.33;73.85;101801.06;5036829;28;20173;-72
2023/10/09 13:31:16;;;;;;;13.93;9.95;;;;;;;22.21;74.61;101804.81;5037884;28;20021;-71
2023/10/09 13:33:43;;;;;;;15.55;9.05;;;;;;;22.19;75.06;101798.63;5037239;28;20025;-71
2023/10/09 13:39:26;;;;;;;14.43;10.52;;;;;;;22.17;73.96;101818.75;5023466;28;20047;-72
2023/10/09 13:41:59;;;;;;;14.35;9.85;;;;;;;22.30;74.12;101804.00;5032455;28;20060;-72
2023/10/09 13:44:28;;;;;;;13.30;9.05;;;;;;;22.51;72.36;101814.88;5036473;28;20044;-71
2023/10/09 13:46:56;;;;;;;12.60;8.60;;;;;;;22.77;71.14;101818.03;5040985;28;20033;-72
2023/10/09 13:49:22;;;;;;;12.50;8.82;;;;;;;23.02;71.19;101815.91;5035330;28;20036;-71
2023/10/09 13:51:49;;;;;;;12.02;8.68;;;;;;;23.11;69.77;101820.53;5032266;28;20324;-71
2023/10/09 13:54:50;;;;;;;13.20;8.38;;;;;;;23.03;69.38;101817.63;5029027;28;20032;-74
2023/10/09 13:57:10;;;;;;;13.32;8.60;;;;;;;22.89;70.73;101818.81;5034789;28;20545;-74
2023/10/09 13:59:42;;;;;;;13.45;8.57;;;;;;;22.73;70.60;101816.59;5038710;28;20052;-72
2023/10/09 14:02:16;;;;;;;11.35;8.88;;;;;;;22.75;70.20;101822.75;5030390;28;20039;-73
2023/10/09 14:04:42;;;;;;;9.70;7.60;;;;;;;23.20;69.66;101819.75;5032589;28;20052;-72
2023/10/09 14:07:08;;;;;;;12.20;7.95;;;;;;;23.73;66.80;101816.78;5034674;28;20033;-74
2023/10/09 14:09:45;;;;;;;12.63;7.97;;;;;;;24.17;65.70;101830.00;5039874;28;20028;-72
2023/10/09 14:12:11;;;;;;;11.63;7.75;;;;;;;24.51;64.95;101819.56;5035365;28;20025;-72
2023/10/09 14:14:49;;;;;;;12.63;7.60;;;;;;;24.61;64.59;101823.13;5041181;28;20028;-72
2023/10/09 14:17:25;;;;;;;12.18;8.38;;;;;;;24.87;61.98;101827.94;5039543;28;20086;-73